Holland, New York
Current Conditions -  °F | °C
As of 11:54 PM on Saturday 25 Oct 2014 (Local Time) from KBUF Reporting Station
Broken Clouds Broken Clouds  
Wind Chill: 51°   Ceiling: 6500
Heat Index: 51°   Visibility: 10mi
Dew Point: 38°   Wind: 9mph
Humidity: 61%   Direction: 280°W
Pressure: 29.65"   Gusts: NA
Location:  42.64°N, 78.54°W
Report Text: KBUF 260354Z 28008KT 10SM FEW048 BKN065 11/03 A2965 RMK AO2 SLP041 T01060033
Loading
Personal Weather Stations






























Interactive Weather Map New forecast layout! Learn more

10-Day Weather Forecast

Advertisements
Track Severe Weather on mobile